Aérodrome :
LOGIN :

S'inscrire | Disclaimer

   EN    FR    IT 

 










Légende :    VFR   VFR Marginal   IFR   IFR Intensif   IFR Très Intensif
Visi : 
Plafond : 
>= 8 km
>= 3000ft
5 à 8 km
1000 à 3000 ft
1500m à 5 km
500 à 1000 ft
800 à 1500m
200 à 500 ft
< 800m
< 200 ft
Symboles :   Orages  Brouillard  Fortes neiges  Fortes précipitations  Vent > 20 kt
SIGMETs :   Divers  Orages  Givrage  Turbulence  Onde Orograph.  Cendres Volcan.







- Altitude de l'aérodrome : 142 ft
- Code IATA : FLR


LIRQ - Firenze Amerigo Vespucci

DERNIER METAR :
  • 210950Z VRB02KT 9999 FEW040 12/08 Q1005

METARs EXPIRÉS :
  • 210920Z 24003KT 200V300 9999 FEW040 11/08 Q1005
  • 210850Z 22004KT 190V260 9999 SCT030 10/09 Q1004
  • 210820Z 21003KT 160V250 9999 BKN030 10/09 Q1004
  • 210750Z 20003KT 9999 BKN025 10/09 Q1004
  • 210720Z VRB02KT 9999 BKN025 09/09 Q1003

TAF TAF LIRQ
Valide du 21 à 06h jusqu'au 22 à 06h UTC


210500Z 2106/2206 VRB06KT 7000 SCT015 BKN025
BECMG 2111/2113 34010KT
Pas de NOTAMs connus pour ce terrain.
5 SIGMETs publiés pour la FIR Milano (LIMM) :
 
Givrage fort
LIMM SIGMET 6 VALID 210945/211245 LIIP
LIMM MILANO FIR SEV ICE OBS AT 0910Z NW OF LINE N4513 E00658 - N4616 E00840 FL190 STNR NC=
Turbulence forte
LIMM SIGMET 5 VALID 210920/211220 LIIP
LIMM MILANO FIR SEV TURB FCST N OF LINE N4507 E00626 - N4615 E01355 FL030/120 MOV E INTSF=
Turbulence forte
LIMM SIGMET 4 VALID 210920/211220 LIIP
LIMM MILANO FIR SEV TURB FCST E OF LINE N4316 E01240 - N4656 E01049 FL230/340 MOV E NC FCST 1220Z E OF LINE N4645 E01254 - N4510 E01318=
Onde orographique forte
LIMM SIGMET 3 VALID 210825/211225 LIIP
LIMM MILANO FIR SEV MTW FCST N OF LINE N4413 E00643 - N4708 E01143 FL120/250 STNR INTSF FCST 1225Z N OF LINE N4418 E00634 - N4615 E01405=
Turbulence forte
LIMM SIGMET 2 VALID 210520/210920 LIIP
LIMM MILANO FIR SEV TURB FCST E OF LINE N4328 E01050 - N4622 E00914 FL240/330 MOV E NC=



MET'MAP, la Météo Aéronautique d'un coup d'oeil ! - Copyright ORBIFLY Décembre 2007 - Disclaimer

ORBIFLY MET'MAP TEAM :

Programmation & Développement : Alexandra Zaïnal
Conception & Développement : Baudouin d'Aumeries
Co-Programmation & Développement : Marc-Olivier Méhu
Soutien technique & logistique : Manuel Goepfert

Contact : metmap@orbifly.com




SOURCES & CREDITS :

   NOAA